sensor_id;sensor_type;location;lat;lon;timestamp;temperature;humidity
77247;SHT35;66279;42.820;23.374;2023-09-30T00:10:02;13.46;72.59
77247;SHT35;66279;42.820;23.374;2023-09-30T00:15:59;13.57;71.93
77247;SHT35;66279;42.820;23.374;2023-09-30T00:23:30;13.71;71.67
77247;SHT35;66279;42.820;23.374;2023-09-30T00:32:05;13.29;73.44
77247;SHT35;66279;42.820;23.374;2023-09-30T00:42:41;13.36;73.72
77247;SHT35;66279;42.820;23.374;2023-09-30T00:54:42;12.82;75.45
77247;SHT35;66279;42.820;23.374;2023-09-30T00:57:12;12.61;76.20
77247;SHT35;66279;42.820;23.374;2023-09-30T00:59:45;12.36;76.76
77247;SHT35;66279;42.820;23.374;2023-09-30T01:02:17;12.29;77.22
77247;SHT35;66279;42.820;23.374;2023-09-30T01:23:07;12.82;75.60
77247;SHT35;66279;42.820;23.374;2023-09-30T02:28:29;10.45;81.06
77247;SHT35;66279;42.820;23.374;2023-09-30T03:17:03;9.90;82.18
77247;SHT35;66279;42.820;23.374;2023-09-30T03:26:57;10.02;81.67
77247;SHT35;66279;42.820;23.374;2023-09-30T03:32:43;9.80;82.62
77247;SHT35;66279;42.820;23.374;2023-09-30T03:53:02;9.37;83.95
77247;SHT35;66279;42.820;23.374;2023-09-30T03:55:31;9.40;83.78
77247;SHT35;66279;42.820;23.374;2023-09-30T04:11:02;9.42;83.89
77247;SHT35;66279;42.820;23.374;2023-09-30T04:16:49;9.25;83.95
77247;SHT35;66279;42.820;23.374;2023-09-30T04:19:18;9.11;84.44
77247;SHT35;66279;42.820;23.374;2023-09-30T04:21:47;9.04;84.71
77247;SHT35;66279;42.820;23.374;2023-09-30T04:24:19;9.16;84.03
77247;SHT35;66279;42.820;23.374;2023-09-30T04:26:49;9.15;84.20
77247;SHT35;66279;42.820;23.374;2023-09-30T04:32:52;8.99;85.11
77247;SHT35;66279;42.820;23.374;2023-09-30T05:06:15;9.56;83.72
77247;SHT35;66279;42.820;23.374;2023-09-30T05:15:10;9.69;84.00
77247;SHT35;66279;42.820;23.374;2023-09-30T05:31:51;10.57;82.58
77247;SHT35;66279;42.820;23.374;2023-09-30T05:34:20;10.90;81.08
77247;SHT35;66279;42.820;23.374;2023-09-30T05:40:06;11.42;80.56
77247;SHT35;66279;42.820;23.374;2023-09-30T06:26:58;14.75;68.21
77247;SHT35;66279;42.820;23.374;2023-09-30T06:49:34;16.60;61.77
77247;SHT35;66279;42.820;23.374;2023-09-30T06:52:00;16.79;60.22
77247;SHT35;66279;42.820;23.374;2023-09-30T06:54:27;16.94;61.12
77247;SHT35;66279;42.820;23.374;2023-09-30T06:56:52;16.94;60.58
77247;SHT35;66279;42.820;23.374;2023-09-30T06:59:18;17.29;59.23
77247;SHT35;66279;42.820;23.374;2023-09-30T07:01:43;17.49;59.65
77247;SHT35;66279;42.820;23.374;2023-09-30T07:04:09;17.69;58.41
77247;SHT35;66279;42.820;23.374;2023-09-30T07:06:37;17.77;58.31
77247;SHT35;66279;42.820;23.374;2023-09-30T07:09:02;18.06;57.83
77247;SHT35;66279;42.820;23.374;2023-09-30T07:11:29;18.11;56.50
77247;SHT35;66279;42.820;23.374;2023-09-30T07:13:56;18.21;55.62
77247;SHT35;66279;42.820;23.374;2023-09-30T07:16:21;18.28;54.85
77247;SHT35;66279;42.820;23.374;2023-09-30T07:18:47;18.74;55.53
77247;SHT35;66279;42.820;23.374;2023-09-30T07:21:13;19.22;53.43
77247;SHT35;66279;42.820;23.374;2023-09-30T07:23:38;19.39;52.71
77247;SHT35;66279;42.820;23.374;2023-09-30T07:26:04;19.36;52.20
77247;SHT35;66279;42.820;23.374;2023-09-30T07:28:29;19.68;52.66
77247;SHT35;66279;42.820;23.374;2023-09-30T07:30:55;20.05;52.06
77247;SHT35;66279;42.820;23.374;2023-09-30T07:33:20;20.23;50.35
77247;SHT35;66279;42.820;23.374;2023-09-30T07:35:46;20.34;51.16
77247;SHT35;66279;42.820;23.374;2023-09-30T07:38:12;20.34;50.15
77247;SHT35;66279;42.820;23.374;2023-09-30T07:40:37;20.65;50.38
77247;SHT35;66279;42.820;23.374;2023-09-30T07:43:03;20.84;49.52
77247;SHT35;66279;42.820;23.374;2023-09-30T07:45:29;21.12;49.39
77247;SHT35;66279;42.820;23.374;2023-09-30T07:47:54;21.23;48.11
77247;SHT35;66279;42.820;23.374;2023-09-30T07:50:20;21.33;48.17
77247;SHT35;66279;42.820;23.374;2023-09-30T07:52:46;21.64;47.24
77247;SHT35;66279;42.820;23.374;2023-09-30T07:55:11;21.78;46.39
77247;SHT35;66279;42.820;23.374;2023-09-30T07:57:40;21.68;46.60
77247;SHT35;66279;42.820;23.374;2023-09-30T08:00:07;21.87;46.97
77247;SHT35;66279;42.820;23.374;2023-09-30T08:02:35;22.18;46.86
77247;SHT35;66279;42.820;23.374;2023-09-30T08:05:02;22.45;44.81
77247;SHT35;66279;42.820;23.374;2023-09-30T08:07:28;22.62;45.74
77247;SHT35;66279;42.820;23.374;2023-09-30T08:09:53;22.70;45.11
77247;SHT35;66279;42.820;23.374;2023-09-30T08:12:19;22.97;45.77
77247;SHT35;66279;42.820;23.374;2023-09-30T08:14:44;22.90;44.73
77247;SHT35;66279;42.820;23.374;2023-09-30T08:17:10;23.35;45.13
77247;SHT35;66279;42.820;23.374;2023-09-30T08:19:37;23.59;44.67
77247;SHT35;66279;42.820;23.374;2023-09-30T08:22:02;23.73;43.36
77247;SHT35;66279;42.820;23.374;2023-09-30T08:24:31;23.83;41.84
77247;SHT35;66279;42.820;23.374;2023-09-30T08:26:57;24.01;41.61
77247;SHT35;66279;42.820;23.374;2023-09-30T08:29:22;24.23;41.85
77247;SHT35;66279;42.820;23.374;2023-09-30T08:31:48;24.03;40.66
77247;SHT35;66279;42.820;23.374;2023-09-30T08:34:16;23.99;40.93
77247;SHT35;66279;42.820;23.374;2023-09-30T08:36:42;24.27;41.04
77247;SHT35;66279;42.820;23.374;2023-09-30T08:39:07;24.44;39.89
77247;SHT35;66279;42.820;23.374;2023-09-30T08:41:35;24.54;40.87
77247;SHT35;66279;42.820;23.374;2023-09-30T08:44:01;24.88;40.25
77247;SHT35;66279;42.820;23.374;2023-09-30T08:46:30;25.01;40.96
77247;SHT35;66279;42.820;23.374;2023-09-30T08:48:58;25.42;38.71
77247;SHT35;66279;42.820;23.374;2023-09-30T08:51:24;25.36;39.69
77247;SHT35;66279;42.820;23.374;2023-09-30T08:53:52;25.67;38.04
77247;SHT35;66279;42.820;23.374;2023-09-30T08:56:20;25.79;38.37
77247;SHT35;66279;42.820;23.374;2023-09-30T08:58:47;26.02;37.21
77247;SHT35;66279;42.820;23.374;2023-09-30T09:01:12;26.18;36.39
77247;SHT35;66279;42.820;23.374;2023-09-30T09:03:38;26.24;35.24
77247;SHT35;66279;42.820;23.374;2023-09-30T09:06:04;26.53;34.27
77247;SHT35;66279;42.820;23.374;2023-09-30T09:08:29;26.29;32.80
77247;SHT35;66279;42.820;23.374;2023-09-30T09:10:56;26.18;30.83
77247;SHT35;66279;42.820;23.374;2023-09-30T09:13:21;25.73;29.60
77247;SHT35;66279;42.820;23.374;2023-09-30T09:15:47;25.79;30.53
77247;SHT35;66279;42.820;23.374;2023-09-30T09:18:30;25.63;30.06
77247;SHT35;66279;42.820;23.374;2023-09-30T09:21:28;25.69;30.33
77247;SHT35;66279;42.820;23.374;2023-09-30T09:23:53;25.40;30.47
77247;SHT35;66279;42.820;23.374;2023-09-30T09:26:26;25.73;30.92
77247;SHT35;66279;42.820;23.374;2023-09-30T09:29:03;25.71;29.53
77247;SHT35;66279;42.820;23.374;2023-09-30T09:31:34;25.81;29.91
77247;SHT35;66279;42.820;23.374;2023-09-30T09:34:01;25.77;30.11
77247;SHT35;66279;42.820;23.374;2023-09-30T09:36:45;25.69;29.92
77247;SHT35;66279;42.820;23.374;2023-09-30T09:39:11;25.91;30.20
77247;SHT35;66279;42.820;23.374;2023-09-30T09:41:54;26.05;29.36
77247;SHT35;66279;42.820;23.374;2023-09-30T09:44:22;25.98;29.31
77247;SHT35;66279;42.820;23.374;2023-09-30T09:46:49;26.28;29.70
77247;SHT35;66279;42.820;23.374;2023-09-30T09:49:19;26.31;29.20
77247;SHT35;66279;42.820;23.374;2023-09-30T09:51:46;26.29;29.53
77247;SHT35;66279;42.820;23.374;2023-09-30T09:54:12;26.49;29.66
77247;SHT35;66279;42.820;23.374;2023-09-30T09:56:39;26.65;30.07
77247;SHT35;66279;42.820;23.374;2023-09-30T09:59:05;26.80;29.15
77247;SHT35;66279;42.820;23.374;2023-09-30T10:01:33;26.62;28.36
77247;SHT35;66279;42.820;23.374;2023-09-30T10:04:00;26.78;29.35
77247;SHT35;66279;42.820;23.374;2023-09-30T10:06:27;26.99;28.95
77247;SHT35;66279;42.820;23.374;2023-09-30T10:08:54;27.18;28.41
77247;SHT35;66279;42.820;23.374;2023-09-30T10:11:23;26.68;28.00
77247;SHT35;66279;42.820;23.374;2023-09-30T10:13:56;27.00;28.90
77247;SHT35;66279;42.820;23.374;2023-09-30T10:21:38;27.34;27.31
77247;SHT35;66279;42.820;23.374;2023-09-30T10:24:39;27.27;27.50
77247;SHT35;66279;42.820;23.374;2023-09-30T12:58:11;26.51;29.10
77247;SHT35;66279;42.820;23.374;2023-09-30T13:00:37;26.52;29.76
77247;SHT35;66279;42.820;23.374;2023-09-30T13:03:03;26.76;29.54
77247;SHT35;66279;42.820;23.374;2023-09-30T13:05:29;26.85;28.59
77247;SHT35;66279;42.820;23.374;2023-09-30T13:13:05;26.86;28.11
77247;SHT35;66279;42.820;23.374;2023-09-30T13:20:41;27.30;28.83
77247;SHT35;66279;42.820;23.374;2023-09-30T13:23:07;27.45;28.23
77247;SHT35;66279;42.820;23.374;2023-09-30T13:25:32;27.41;28.37
77247;SHT35;66279;42.820;23.374;2023-09-30T13:33:01;27.40;28.12
77247;SHT35;66279;42.820;23.374;2023-09-30T13:35:26;27.26;28.69
77247;SHT35;66279;42.820;23.374;2023-09-30T13:37:52;27.22;28.07
77247;SHT35;66279;42.820;23.374;2023-09-30T13:40:18;26.99;28.60
77247;SHT35;66279;42.820;23.374;2023-09-30T13:42:43;27.06;29.21
77247;SHT35;66279;42.820;23.374;2023-09-30T13:45:10;27.16;28.77
77247;SHT35;66279;42.820;23.374;2023-09-30T13:47:36;27.33;28.16
77247;SHT35;66279;42.820;23.374;2023-09-30T13:50:05;27.50;28.18
77247;SHT35;66279;42.820;23.374;2023-09-30T13:52:35;27.58;27.86
77247;SHT35;66279;42.820;23.374;2023-09-30T13:55:01;27.27;29.18
77247;SHT35;66279;42.820;23.374;2023-09-30T13:57:28;27.29;29.08
77247;SHT35;66279;42.820;23.374;2023-09-30T13:59:54;27.31;28.68
77247;SHT35;66279;42.820;23.374;2023-09-30T14:02:19;27.38;29.59
77247;SHT35;66279;42.820;23.374;2023-09-30T14:12:27;27.18;28.41
77247;SHT35;66279;42.820;23.374;2023-09-30T14:14:52;26.92;29.07
77247;SHT35;66279;42.820;23.374;2023-09-30T14:17:19;27.30;29.64
77247;SHT35;66279;42.820;23.374;2023-09-30T14:19:45;27.47;28.45
77247;SHT35;66279;42.820;23.374;2023-09-30T14:22:10;27.04;28.03
77247;SHT35;66279;42.820;23.374;2023-09-30T14:24:37;26.95;28.68
77247;SHT35;66279;42.820;23.374;2023-09-30T14:27:23;26.58;28.45
77247;SHT35;66279;42.820;23.374;2023-09-30T14:29:48;26.18;29.00
77247;SHT35;66279;42.820;23.374;2023-09-30T14:58:10;26.13;30.07
77247;SHT35;66279;42.820;23.374;2023-09-30T15:00:36;26.16;29.81
77247;SHT35;66279;42.820;23.374;2023-09-30T15:03:01;26.21;30.65
77247;SHT35;66279;42.820;23.374;2023-09-30T15:05:27;26.22;29.39
77247;SHT35;66279;42.820;23.374;2023-09-30T15:10:24;26.20;30.78
77247;SHT35;66279;42.820;23.374;2023-09-30T15:12:49;25.87;30.59
77247;SHT35;66279;42.820;23.374;2023-09-30T15:15:15;25.76;30.89
77247;SHT35;66279;42.820;23.374;2023-09-30T15:17:41;25.66;31.97
77247;SHT35;66279;42.820;23.374;2023-09-30T15:20:07;25.39;31.67
77247;SHT35;66279;42.820;23.374;2023-09-30T15:22:32;25.45;31.93
77247;SHT35;66279;42.820;23.374;2023-09-30T15:24:58;25.45;31.62
77247;SHT35;66279;42.820;23.374;2023-09-30T15:27:24;25.25;31.80
77247;SHT35;66279;42.820;23.374;2023-09-30T15:29:50;25.28;33.08
77247;SHT35;66279;42.820;23.374;2023-09-30T15:32:16;25.09;32.36
77247;SHT35;66279;42.820;23.374;2023-09-30T15:34:42;24.85;32.36
77247;SHT35;66279;42.820;23.374;2023-09-30T15:37:09;24.84;33.18
77247;SHT35;66279;42.820;23.374;2023-09-30T15:39:38;24.68;33.03
77247;SHT35;66279;42.820;23.374;2023-09-30T15:42:04;24.51;33.06
77247;SHT35;66279;42.820;23.374;2023-09-30T15:44:30;24.27;33.93
77247;SHT35;66279;42.820;23.374;2023-09-30T15:46:56;24.02;33.97
77247;SHT35;66279;42.820;23.374;2023-09-30T15:49:24;24.02;34.48
77247;SHT35;66279;42.820;23.374;2023-09-30T15:51:50;24.06;35.09
77247;SHT35;66279;42.820;23.374;2023-09-30T15:56:47;24.09;35.74
77247;SHT35;66279;42.820;23.374;2023-09-30T16:02:29;23.64;35.04
77247;SHT35;66279;42.820;23.374;2023-09-30T16:07:23;23.14;36.08
77247;SHT35;66279;42.820;23.374;2023-09-30T16:09:49;23.03;37.15
77247;SHT35;66279;42.820;23.374;2023-09-30T16:12:14;22.93;37.54
77247;SHT35;66279;42.820;23.374;2023-09-30T16:14:40;22.76;37.12
77247;SHT35;66279;42.820;23.374;2023-09-30T16:52:10;19.76;47.11
77247;SHT35;66279;42.820;23.374;2023-09-30T16:57:37;19.27;47.98
77247;SHT35;66279;42.820;23.374;2023-09-30T17:02:36;18.28;50.41
77247;SHT35;66279;42.820;23.374;2023-09-30T17:07:34;17.59;51.86
77247;SHT35;66279;42.820;23.374;2023-09-30T17:10:03;17.16;53.35
77247;SHT35;66279;42.820;23.374;2023-09-30T17:12:33;16.89;54.44
77247;SHT35;66279;42.820;23.374;2023-09-30T17:15:03;16.69;54.81
77247;SHT35;66279;42.820;23.374;2023-09-30T17:17:32;16.61;55.01
77247;SHT35;66279;42.820;23.374;2023-09-30T17:20:05;16.63;54.84
77247;SHT35;66279;42.820;23.374;2023-09-30T17:25:03;16.54;54.87
77247;SHT35;66279;42.820;23.374;2023-09-30T17:27:35;16.65;54.37
77247;SHT35;66279;42.820;23.374;2023-09-30T17:30:06;16.65;54.20
77247;SHT35;66279;42.820;23.374;2023-09-30T17:39:55;16.48;54.75
77247;SHT35;66279;42.820;23.374;2023-09-30T17:42:24;16.55;54.16
77247;SHT35;66279;42.820;23.374;2023-09-30T17:44:53;16.54;54.42
77247;SHT35;66279;42.820;23.374;2023-09-30T17:53:00;16.45;54.04
77247;SHT35;66279;42.820;23.374;2023-09-30T17:55:29;16.53;53.59
77247;SHT35;66279;42.820;23.374;2023-09-30T17:57:58;16.45;53.91
77247;SHT35;66279;42.820;23.374;2023-09-30T18:00:24;16.36;54.02
77247;SHT35;66279;42.820;23.374;2023-09-30T18:02:55;16.27;54.29
77247;SHT35;66279;42.820;23.374;2023-09-30T18:05:25;16.20;54.55
77247;SHT35;66279;42.820;23.374;2023-09-30T18:07:52;16.20;54.27
77247;SHT35;66279;42.820;23.374;2023-09-30T18:12:48;16.21;54.54
77247;SHT35;66279;42.820;23.374;2023-09-30T18:15:15;16.20;54.88
77247;SHT35;66279;42.820;23.374;2023-09-30T18:22:36;16.16;55.36
77247;SHT35;66279;42.820;23.374;2023-09-30T18:28:13;16.02;56.07
77247;SHT35;66279;42.820;23.374;2023-09-30T18:30:42;16.12;55.14
77247;SHT35;66279;42.820;23.374;2023-09-30T18:33:09;16.03;55.12
77247;SHT35;66279;42.820;23.374;2023-09-30T18:35:39;15.87;55.54
77247;SHT35;66279;42.820;23.374;2023-09-30T18:38:05;15.79;55.77
77247;SHT35;66279;42.820;23.374;2023-09-30T18:40:33;15.82;55.42
77247;SHT35;66279;42.820;23.374;2023-09-30T18:43:00;15.85;56.52
77247;SHT35;66279;42.820;23.374;2023-09-30T18:55:21;15.96;55.26
77247;SHT35;66279;42.820;23.374;2023-09-30T19:08:05;15.38;58.47
77247;SHT35;66279;42.820;23.374;2023-09-30T19:10:35;14.91;60.64
77247;SHT35;66279;42.820;23.374;2023-09-30T19:24:05;14.67;62.13
77247;SHT35;66279;42.820;23.374;2023-09-30T19:26:30;14.32;63.11
77247;SHT35;66279;42.820;23.374;2023-09-30T19:28:56;13.80;64.90
77247;SHT35;66279;42.820;23.374;2023-09-30T19:31:26;13.81;64.60
77247;SHT35;66279;42.820;23.374;2023-09-30T19:33:52;13.84;64.61
77247;SHT35;66279;42.820;23.374;2023-09-30T19:36:25;13.75;65.35
77247;SHT35;66279;42.820;23.374;2023-09-30T19:43:48;13.12;67.56
77247;SHT35;66279;42.820;23.374;2023-09-30T19:46:17;13.02;67.73
77247;SHT35;66279;42.820;23.374;2023-09-30T19:48:43;12.98;67.98
77247;SHT35;66279;42.820;23.374;2023-09-30T19:53:38;12.54;69.69
77247;SHT35;66279;42.820;23.374;2023-09-30T20:08:31;12.24;70.93
77247;SHT35;66279;42.820;23.374;2023-09-30T20:11:01;12.07;71.66
77247;SHT35;66279;42.820;23.374;2023-09-30T20:20:50;11.99;72.30
77247;SHT35;66279;42.820;23.374;2023-09-30T20:23:17;11.83;72.70
77247;SHT35;66279;42.820;23.374;2023-09-30T20:25:48;11.79;72.77
77247;SHT35;66279;42.820;23.374;2023-09-30T20:38:05;11.28;75.03
77247;SHT35;66279;42.820;23.374;2023-09-30T20:40:31;11.27;75.26
77247;SHT35;66279;42.820;23.374;2023-09-30T20:45:25;11.32;75.28
77247;SHT35;66279;42.820;23.374;2023-09-30T20:52:58;11.13;76.36
77247;SHT35;66279;42.820;23.374;2023-09-30T20:58:17;11.03;76.85
77247;SHT35;66279;42.820;23.374;2023-09-30T21:03:10;10.97;77.12
77247;SHT35;66279;42.820;23.374;2023-09-30T21:10:52;11.00;77.02
77247;SHT35;66279;42.820;23.374;2023-09-30T21:25:42;11.55;74.70
77247;SHT35;66279;42.820;23.374;2023-09-30T21:28:11;11.44;75.01
77247;SHT35;66279;42.820;23.374;2023-09-30T21:30:43;11.24;75.60
77247;SHT35;66279;42.820;23.374;2023-09-30T21:33:08;11.31;75.59
77247;SHT35;66279;42.820;23.374;2023-09-30T21:45:26;10.96;76.71
77247;SHT35;66279;42.820;23.374;2023-09-30T21:47:51;11.04;76.80
77247;SHT35;66279;42.820;23.374;2023-09-30T21:50:17;11.11;76.12
77247;SHT35;66279;42.820;23.374;2023-09-30T21:52:43;11.24;75.86
77247;SHT35;66279;42.820;23.374;2023-09-30T21:55:08;11.07;76.05
77247;SHT35;66279;42.820;23.374;2023-09-30T21:57:34;10.90;76.73
77247;SHT35;66279;42.820;23.374;2023-09-30T22:00:00;10.69;77.69
77247;SHT35;66279;42.820;23.374;2023-09-30T22:02:25;10.46;78.57
77247;SHT35;66279;42.820;23.374;2023-09-30T22:07:20;10.66;77.91
77247;SHT35;66279;42.820;23.374;2023-09-30T22:09:49;10.77;77.18
77247;SHT35;66279;42.820;23.374;2023-09-30T22:12:15;10.70;77.77
77247;SHT35;66279;42.820;23.374;2023-09-30T22:19:36;11.00;76.64
77247;SHT35;66279;42.820;23.374;2023-09-30T22:24:29;10.80;77.42
77247;SHT35;66279;42.820;23.374;2023-09-30T22:31:54;10.31;78.95
77247;SHT35;66279;42.820;23.374;2023-09-30T22:34:26;10.01;80.03
77247;SHT35;66279;42.820;23.374;2023-09-30T22:36:58;10.11;79.47
77247;SHT35;66279;42.820;23.374;2023-09-30T22:39:44;10.12;79.66
77247;SHT35;66279;42.820;23.374;2023-09-30T22:44:55;10.49;77.77
77247;SHT35;66279;42.820;23.374;2023-09-30T22:54:49;10.67;77.35
77247;SHT35;66279;42.820;23.374;2023-09-30T22:57:18;10.46;78.25
77247;SHT35;66279;42.820;23.374;2023-09-30T22:59:43;10.11;79.26
77247;SHT35;66279;42.820;23.374;2023-09-30T23:04:37;10.16;78.80
77247;SHT35;66279;42.820;23.374;2023-09-30T23:07:02;10.12;78.88
77247;SHT35;66279;42.820;23.374;2023-09-30T23:09:29;10.09;79.04
77247;SHT35;66279;42.820;23.374;2023-09-30T23:11:56;10.08;79.31
77247;SHT35;66279;42.820;23.374;2023-09-30T23:21:46;9.78;80.55
77247;SHT35;66279;42.820;23.374;2023-09-30T23:24:16;9.85;80.79
77247;SHT35;66279;42.820;23.374;2023-09-30T23:29:11;9.77;80.66
77247;SHT35;66279;42.820;23.374;2023-09-30T23:31:38;9.73;80.43
77247;SHT35;66279;42.820;23.374;2023-09-30T23:39:01;9.56;81.76
77247;SHT35;66279;42.820;23.374;2023-09-30T23:41:27;9.47;81.97
77247;SHT35;66279;42.820;23.374;2023-09-30T23:43:53;9.74;80.69
77247;SHT35;66279;42.820;23.374;2023-09-30T23:51:21;9.44;81.56
77247;SHT35;66279;42.820;23.374;2023-09-30T23:57:05;9.19;82.20
77247;SHT35;66279;42.820;23.374;2023-09-30T23:59:31;9.44;81.02
